Terminal Aerodrome Forecast
Issued by NWS

Home | Current Version | Previous Version | Text Only | Print | Product List | Glossary On
Versions: 1 2 3 4 5 6 7 8 9 10 11 12 13 14 15 16 17 18 19 20 21 22 23 24 25 26 27 28 29 30 31 32 33 34 35 36 37 38
664
FTUS43 KGLD 261023 AAA
TAFMCK
TAF AMD
KMCK 261023Z 2610/2706 VRB05KT P6SM SCT020 BKN070
      TEMPO 2611/2615 BKN015
     FM261500 07011KT P6SM SCT015 BKN035
     FM262000 03014KT P6SM VCTS SCT080CB BKN150
     FM270200 34013KT P6SM -TSRA BKN050CB=

USA.gov is the U.S. government's official web portal to all federal, state and local government web resources and services.